Ashland, Illinois
Current Conditions -  °F | °C
As of 12:55 AM on Monday 24 Nov 2014 (Local Time) from KIJX Reporting Station
Haze Haze  
Wind Chill: 42°   Ceiling: 400
Heat Index: 49°   Visibility: 4mi
Dew Point: 47°   Wind: 22mph
Humidity: 93%   Direction: 300°WNW
Pressure: 29.18"   Gusts: 26mph
Location:  39.89°N, 90.01°W
Report Text: KIJX 240655Z AUTO 30019G23KT 4SM BR OVC004 09/08 A2918 RMK AO2 T00940084
Loading
Personal Weather Stations






























Interactive Weather Map New forecast layout! Learn more

10-Day Weather Forecast

Advertisements
Track Severe Weather on mobile